createdAt,value
2023-04-12T00:01:34.692Z,1.30
2023-04-12T00:04:04.652Z,1.50
2023-04-12T00:06:33.349Z,1.20
2023-04-12T00:09:01.224Z,1.47
2023-04-12T00:11:29.800Z,1.03
2023-04-12T00:13:57.655Z,1.10
2023-04-12T00:16:25.676Z,1.20
2023-04-12T00:18:53.361Z,1.20
2023-04-12T00:21:23.932Z,1.33
2023-04-12T00:23:51.663Z,1.40
2023-04-12T00:26:20.817Z,1.40
2023-04-12T00:28:49.070Z,1.30
2023-04-12T00:31:16.834Z,1.20
2023-04-12T00:33:44.566Z,1.30
2023-04-12T00:36:12.567Z,0.90
2023-04-12T00:38:42.254Z,1.40
2023-04-12T00:41:10.040Z,1.20
2023-04-12T00:43:37.817Z,1.20
2023-04-12T00:46:07.035Z,1.20
2023-04-12T00:48:35.153Z,1.33
2023-04-12T00:51:03.952Z,1.33
2023-04-12T00:53:32.265Z,1.13
2023-04-12T00:56:01.659Z,1.30
2023-04-12T00:58:29.399Z,0.90
2023-04-12T01:00:57.371Z,1.17
2023-04-12T01:03:27.838Z,1.33
2023-04-12T01:06:05.420Z,1.10
2023-04-12T01:08:45.356Z,1.30
2023-04-12T01:11:25.979Z,1.00
2023-04-12T01:14:04.298Z,1.20
2023-04-12T01:16:37.696Z,1.30
2023-04-12T01:19:11.466Z,1.10
2023-04-12T01:21:50.344Z,1.30
2023-04-12T01:24:29.027Z,1.17
2023-04-12T01:27:02.063Z,1.50
2023-04-12T01:29:32.279Z,1.40
2023-04-12T01:32:02.318Z,1.10
2023-04-12T01:34:32.626Z,1.30
2023-04-12T01:37:03.964Z,1.13
2023-04-12T01:39:33.206Z,1.30
2023-04-12T01:42:00.913Z,1.30
2023-04-12T01:44:28.594Z,1.10
2023-04-12T01:46:58.737Z,1.20
2023-04-12T01:49:34.930Z,1.00
2023-04-12T01:52:07.304Z,1.17
2023-04-12T01:54:38.930Z,1.30
2023-04-12T01:57:08.532Z,1.10
2023-04-12T01:59:41.003Z,1.50
2023-04-12T02:02:11.141Z,1.20
2023-04-12T02:04:40.393Z,1.03
2023-04-12T02:07:08.121Z,1.20
2023-04-12T02:09:38.867Z,1.27
2023-04-12T02:12:07.373Z,1.10
2023-04-12T02:14:35.793Z,1.10
2023-04-12T02:17:04.715Z,1.47
2023-04-12T02:19:33.722Z,1.10
2023-04-12T02:22:02.217Z,1.13
2023-04-12T02:24:30.006Z,0.97
2023-04-12T02:26:59.580Z,1.20
2023-04-12T02:29:27.370Z,0.93
2023-04-12T02:31:55.108Z,1.13
2023-04-12T02:34:23.094Z,1.10
2023-04-12T02:36:52.418Z,0.90
2023-04-12T02:39:21.990Z,1.17
2023-04-12T02:41:49.888Z,1.10
2023-04-12T02:44:17.701Z,1.00
2023-04-12T02:46:45.426Z,1.00
2023-04-12T02:49:13.088Z,0.97
2023-04-12T02:51:41.692Z,0.90
2023-04-12T02:54:10.675Z,1.10
2023-04-12T02:56:38.326Z,1.33
2023-04-12T02:59:06.821Z,1.10
2023-04-12T03:01:34.762Z,1.00
2023-04-12T03:04:02.858Z,1.13
2023-04-12T03:06:32.065Z,1.23
2023-04-12T03:09:00.239Z,1.20
2023-04-12T03:11:29.243Z,1.17
2023-04-12T03:13:57.130Z,1.37
2023-04-12T03:16:29.920Z,1.33
2023-04-12T03:18:57.847Z,1.00
2023-04-12T03:21:25.945Z,1.00
2023-04-12T03:23:53.581Z,0.93
2023-04-12T03:26:21.289Z,1.00
2023-04-12T03:28:50.423Z,1.73
2023-04-12T03:31:20.944Z,1.10
2023-04-12T03:33:48.915Z,1.10
2023-04-12T03:36:16.621Z,1.10
2023-04-12T03:38:44.288Z,1.20
2023-04-12T03:41:11.902Z,1.23
2023-04-12T03:43:40.514Z,1.30
2023-04-12T03:46:09.842Z,1.40
2023-04-12T03:48:37.757Z,1.60
2023-04-12T03:51:07.832Z,1.30
2023-04-12T03:53:35.959Z,1.50
2023-04-12T03:56:03.624Z,1.43
2023-04-12T03:58:31.300Z,1.60
2023-04-12T04:01:01.287Z,1.40
2023-04-12T04:03:30.498Z,1.40
2023-04-12T04:05:58.437Z,1.17
2023-04-12T04:08:26.238Z,1.30
2023-04-12T04:10:54.017Z,1.20
2023-04-12T04:13:22.016Z,1.30
2023-04-12T04:15:53.012Z,1.27
2023-04-12T04:18:20.806Z,1.37
2023-04-12T04:20:49.960Z,1.57
2023-04-12T04:23:18.580Z,1.40
2023-04-12T04:25:46.370Z,1.53
2023-04-12T04:28:15.995Z,1.30
2023-04-12T04:30:46.109Z,1.40
2023-04-12T04:33:15.866Z,1.33
2023-04-12T04:35:43.859Z,1.53
2023-04-12T04:38:13.232Z,1.43
2023-04-12T04:40:40.990Z,1.50
2023-04-12T04:43:09.771Z,1.77
2023-04-12T04:45:37.491Z,1.73
2023-04-12T04:48:05.716Z,1.83
2023-04-12T04:50:33.763Z,1.80
2023-04-12T04:53:01.590Z,1.97
2023-04-12T04:55:31.080Z,1.60
2023-04-12T04:57:58.930Z,1.63
2023-04-12T05:00:26.730Z,1.40
2023-04-12T05:02:54.590Z,2.13
2023-04-12T05:05:23.374Z,2.00
2023-04-12T05:07:51.272Z,1.87
2023-04-12T05:10:19.151Z,1.70
2023-04-12T05:12:48.354Z,2.13
2023-04-12T05:15:16.302Z,2.37
2023-04-12T05:17:44.361Z,1.80
2023-04-12T05:20:12.599Z,1.53
2023-04-12T05:22:40.747Z,1.60
2023-04-12T05:25:09.623Z,1.70
2023-04-12T05:27:37.742Z,1.77
2023-04-12T05:30:09.054Z,1.67
2023-04-12T05:32:37.083Z,1.90
2023-04-12T05:35:05.356Z,2.17
2023-04-12T05:37:33.384Z,1.70
2023-04-12T05:40:01.320Z,1.60
2023-04-12T05:42:29.544Z,1.53
2023-04-12T05:44:57.460Z,1.20
2023-04-12T05:47:27.037Z,1.63
2023-04-12T05:49:55.414Z,1.70
2023-04-12T05:52:23.412Z,1.80
2023-04-12T05:54:51.893Z,1.80
2023-04-12T05:57:19.812Z,1.90
2023-04-12T05:59:47.760Z,1.80
2023-04-12T06:02:15.741Z,2.20
2023-04-12T06:04:50.746Z,1.97
2023-04-12T06:07:20.100Z,1.70
2023-04-12T06:09:49.853Z,1.83
2023-04-12T06:12:17.758Z,1.83
2023-04-12T06:14:46.867Z,1.80
2023-04-12T06:17:14.615Z,1.90
2023-04-12T06:19:42.483Z,1.90
2023-04-12T06:22:11.679Z,2.10
2023-04-12T06:24:39.454Z,2.03
2023-04-12T06:27:07.270Z,1.60
2023-04-12T06:29:35.056Z,1.90
2023-04-12T06:32:02.759Z,2.00
2023-04-12T06:34:31.373Z,2.00
2023-04-12T06:37:00.623Z,2.00
2023-04-12T06:39:29.600Z,2.10
2023-04-12T06:41:59.542Z,2.33
2023-04-12T06:44:27.991Z,2.30
2023-04-12T06:46:56.044Z,2.10
2023-04-12T06:49:23.844Z,2.13
2023-04-12T06:51:51.713Z,1.80
2023-04-12T06:54:19.567Z,2.00
2023-04-12T06:56:48.787Z,2.00
2023-04-12T06:59:16.689Z,2.00
2023-04-12T07:01:44.519Z,1.47
2023-04-12T07:04:13.014Z,1.83
2023-04-12T07:06:40.925Z,1.83
2023-04-12T07:09:09.035Z,1.63
2023-04-12T07:11:37.042Z,1.93
2023-04-12T07:14:06.186Z,1.83
2023-04-12T07:16:34.210Z,1.50
2023-04-12T07:19:02.057Z,1.60
2023-04-12T07:21:29.908Z,2.43
2023-04-12T07:23:57.690Z,2.10
2023-04-12T07:26:26.038Z,1.90
2023-04-12T07:28:54.872Z,2.37
2023-04-12T07:31:24.281Z,2.50
2023-04-12T07:33:52.071Z,3.17
2023-04-12T07:36:21.963Z,2.43
2023-04-12T07:38:54.883Z,2.97
2023-04-12T07:41:23.069Z,2.87
2023-04-12T07:43:51.261Z,2.90
2023-04-12T07:46:18.940Z,3.07
2023-04-12T07:48:48.050Z,2.73
2023-04-12T07:51:15.673Z,3.10
2023-04-12T07:53:48.138Z,2.80
2023-04-12T07:56:16.335Z,2.63
2023-04-12T07:58:44.179Z,3.23
2023-04-12T08:01:13.182Z,2.90
2023-04-12T08:03:40.952Z,3.00
2023-04-12T08:06:13.377Z,3.07
2023-04-12T08:08:41.283Z,2.70
2023-04-12T08:11:09.086Z,2.67
2023-04-12T08:13:36.836Z,2.63
2023-04-12T08:16:04.902Z,2.07
2023-04-12T08:18:32.543Z,2.50
2023-04-12T08:21:00.222Z,2.33
2023-04-12T08:23:29.358Z,2.43
2023-04-12T08:26:03.270Z,2.10
2023-04-12T08:28:31.086Z,1.70
2023-04-12T08:30:59.265Z,2.30
2023-04-12T08:33:27.680Z,2.07
2023-04-12T08:35:56.057Z,1.90
2023-04-12T08:38:37.247Z,2.03
2023-04-12T08:41:13.524Z,1.70
2023-04-12T08:43:44.376Z,1.90
2023-04-12T08:46:13.581Z,2.00
2023-04-12T08:48:43.262Z,1.40
2023-04-12T08:51:13.981Z,1.37
2023-04-12T08:53:41.682Z,1.40
2023-04-12T08:56:12.821Z,1.33
2023-04-12T08:58:41.610Z,1.90
2023-04-12T09:01:13.977Z,1.40
2023-04-12T09:03:41.851Z,1.37
2023-04-12T09:06:10.658Z,1.43
2023-04-12T09:08:38.396Z,1.60
2023-04-12T09:11:23.103Z,1.67
2023-04-12T09:13:50.855Z,1.87
2023-04-12T09:16:20.270Z,1.73
2023-04-12T09:18:51.969Z,1.43
2023-04-12T09:21:20.052Z,1.77
2023-04-12T09:24:03.538Z,1.60
2023-04-12T09:26:32.600Z,1.40
2023-04-12T09:29:00.956Z,1.40
2023-04-12T09:31:28.691Z,1.70
2023-04-12T09:34:07.817Z,1.00
2023-04-12T09:36:39.528Z,1.30
2023-04-12T09:39:08.851Z,1.20
2023-04-12T09:41:37.839Z,1.53
2023-04-12T09:44:05.732Z,1.70
2023-04-12T09:46:34.487Z,1.40
2023-04-12T09:49:03.379Z,1.43
2023-04-12T09:51:32.734Z,1.20
2023-04-12T09:54:01.978Z,1.10
2023-04-12T09:56:32.203Z,1.20
2023-04-12T09:59:05.066Z,1.50
2023-04-12T10:01:36.660Z,1.50
2023-04-12T10:04:06.177Z,1.60
2023-04-12T10:06:34.366Z,1.77
2023-04-12T10:09:04.671Z,1.40
2023-04-12T10:11:33.852Z,1.53
2023-04-12T10:14:04.211Z,2.13
2023-04-12T10:16:34.400Z,2.10
2023-04-12T10:19:03.803Z,2.93
2023-04-12T10:21:31.829Z,2.63
2023-04-12T10:23:59.888Z,3.07
2023-04-12T10:26:27.922Z,2.67
2023-04-12T10:29:30.824Z,2.30
2023-04-12T10:32:00.079Z,2.57
2023-04-12T10:34:31.870Z,2.67
2023-04-12T10:37:00.535Z,1.77
2023-04-12T10:39:42.271Z,1.50
2023-04-12T10:42:21.461Z,2.10
2023-04-12T10:44:51.975Z,1.70
2023-04-12T10:47:52.966Z,2.30
2023-04-12T10:50:24.990Z,1.50
2023-04-12T10:53:25.746Z,1.70
2023-04-12T10:55:53.666Z,1.67
2023-04-12T10:58:56.304Z,1.20
2023-04-12T11:01:25.936Z,1.30
2023-04-12T11:04:14.430Z,1.00
2023-04-12T11:06:52.247Z,1.37
2023-04-12T11:09:22.430Z,1.17
2023-04-12T11:11:50.441Z,1.17
2023-04-12T11:14:18.943Z,1.43
2023-04-12T11:17:26.441Z,1.23
2023-04-12T11:20:00.460Z,1.07
2023-04-12T11:22:32.873Z,1.10
2023-04-12T11:25:03.014Z,1.30
2023-04-12T11:27:31.848Z,1.20
2023-04-12T11:30:00.841Z,1.30
2023-04-12T11:32:29.703Z,1.40
2023-04-12T11:34:59.389Z,1.57
2023-04-12T11:37:28.227Z,1.37
2023-04-12T11:39:59.099Z,1.60
2023-04-12T11:42:28.842Z,1.60
2023-04-12T11:45:01.093Z,1.63
2023-04-12T11:47:31.214Z,1.87
2023-04-12T11:50:00.439Z,1.93
2023-04-12T11:52:33.306Z,2.30
2023-04-12T11:55:04.982Z,1.60
2023-04-12T11:57:32.843Z,1.70
2023-04-12T12:00:00.805Z,1.67
2023-04-12T12:02:32.963Z,1.30
2023-04-12T12:05:04.558Z,2.07
2023-04-12T12:07:33.025Z,2.30
2023-04-12T12:10:02.049Z,2.40
2023-04-12T12:12:29.752Z,1.77
2023-04-12T12:15:00.860Z,2.07
2023-04-12T12:17:28.837Z,1.70
2023-04-12T12:19:58.499Z,2.63
2023-04-12T12:22:27.581Z,1.90
2023-04-12T12:24:58.157Z,1.70
2023-04-12T12:27:34.286Z,1.53
2023-04-12T12:30:04.400Z,1.70
2023-04-12T12:32:34.908Z,1.63
2023-04-12T12:35:02.911Z,1.77
2023-04-12T12:37:31.991Z,1.60
2023-04-12T12:40:11.442Z,1.97
2023-04-12T12:42:46.792Z,1.90
2023-04-12T12:45:15.345Z,2.20
2023-04-12T12:47:47.645Z,2.00
2023-04-12T12:50:17.532Z,2.07
2023-04-12T12:52:47.416Z,1.90
2023-04-12T12:55:16.059Z,1.63
2023-04-12T12:57:52.003Z,2.13
2023-04-12T13:00:31.517Z,2.07
2023-04-12T13:02:59.850Z,1.53
2023-04-12T13:05:27.882Z,2.20
2023-04-12T13:07:56.876Z,1.70
2023-04-12T13:10:26.536Z,2.00
2023-04-12T13:12:54.347Z,1.67
2023-04-12T13:15:23.847Z,2.30
2023-04-12T13:17:53.437Z,2.50
2023-04-12T13:20:21.495Z,2.60
2023-04-12T13:22:49.343Z,2.10
2023-04-12T13:25:19.769Z,2.63
2023-04-12T13:27:48.828Z,2.43
2023-04-12T13:30:16.700Z,2.20
2023-04-12T13:32:44.667Z,2.47
2023-04-12T13:35:12.827Z,2.47
2023-04-12T13:37:40.841Z,2.23
2023-04-12T13:40:09.663Z,2.23
2023-04-12T13:42:38.736Z,2.20
2023-04-12T13:45:07.594Z,2.73
2023-04-12T13:47:35.412Z,2.13
2023-04-12T13:50:03.093Z,2.43
2023-04-12T13:52:30.952Z,2.50
2023-04-12T13:54:59.605Z,2.20
2023-04-12T13:57:27.387Z,1.97
2023-04-12T13:59:56.594Z,2.27
2023-04-12T14:02:24.396Z,2.47
2023-04-12T14:04:53.368Z,2.27
2023-04-12T14:07:21.639Z,2.13
2023-04-12T14:09:49.454Z,1.63
2023-04-12T14:12:17.251Z,2.17
2023-04-12T14:14:44.985Z,2.23
2023-04-12T14:17:14.245Z,2.27
2023-04-12T14:19:43.027Z,1.70
2023-04-12T14:22:10.902Z,1.80
2023-04-12T14:24:40.065Z,2.20
2023-04-12T14:27:07.828Z,1.93
2023-04-12T14:29:35.435Z,2.03
2023-04-12T14:32:03.065Z,2.30
2023-04-12T14:34:32.039Z,2.20
2023-04-12T14:37:00.352Z,2.07
2023-04-12T14:39:28.138Z,2.07
2023-04-12T14:41:56.900Z,2.53
2023-04-12T14:44:26.280Z,2.67
2023-04-12T14:46:54.260Z,2.50
2023-04-12T14:49:22.069Z,3.10
2023-04-12T14:51:51.136Z,3.07
2023-04-12T14:54:18.721Z,2.60
2023-04-12T14:56:52.285Z,2.20
2023-04-12T14:59:22.412Z,1.60
2023-04-12T15:01:51.918Z,1.30
2023-04-12T15:04:20.127Z,1.50
2023-04-12T15:06:47.887Z,1.53
2023-04-12T15:09:17.610Z,1.60
2023-04-12T15:11:47.090Z,1.30
2023-04-12T15:14:17.982Z,1.30
2023-04-12T15:16:46.810Z,1.00
2023-04-12T15:19:20.437Z,1.37
2023-04-12T15:21:51.056Z,1.10
2023-04-12T15:24:20.870Z,1.20
2023-04-12T15:26:49.053Z,0.93
2023-04-12T15:29:17.452Z,1.07
2023-04-12T15:31:45.597Z,1.10
2023-04-12T15:34:14.011Z,1.20
2023-04-12T15:36:43.145Z,1.30
2023-04-12T15:39:11.202Z,1.10
2023-04-12T15:41:41.755Z,1.33
2023-04-12T15:44:11.853Z,1.10
2023-04-12T15:46:40.403Z,1.10
2023-04-12T15:49:08.932Z,1.47
2023-04-12T15:51:36.685Z,1.07
2023-04-12T15:54:06.520Z,1.03
2023-04-12T15:56:35.150Z,1.20
2023-04-12T15:59:04.205Z,0.97
2023-04-12T16:01:31.867Z,1.00
2023-04-12T16:03:59.657Z,1.07
2023-04-12T16:06:28.300Z,1.00
2023-04-12T16:08:57.450Z,1.00
2023-04-12T16:11:25.437Z,0.90
2023-04-12T16:13:54.093Z,1.13
2023-04-12T16:16:24.449Z,1.03
2023-04-12T16:18:52.677Z,0.90
2023-04-12T16:21:23.198Z,1.00
2023-04-12T16:23:52.053Z,1.10
2023-04-12T16:26:21.727Z,0.93
2023-04-12T16:28:50.524Z,1.20
2023-04-12T16:31:19.786Z,1.10
2023-04-12T16:33:49.077Z,0.90
2023-04-12T16:36:16.989Z,1.10
2023-04-12T16:38:45.475Z,1.10
2023-04-12T16:41:13.306Z,1.23
2023-04-12T16:43:43.270Z,1.13
2023-04-12T16:46:12.566Z,1.10
2023-04-12T16:48:41.183Z,1.47
2023-04-12T16:51:10.301Z,1.40
2023-04-12T16:53:38.098Z,1.23
2023-04-12T16:56:06.221Z,1.03
2023-04-12T16:58:34.010Z,1.20
2023-04-12T17:01:01.973Z,1.00
2023-04-12T17:03:30.220Z,0.80
2023-04-12T17:05:58.256Z,0.87
2023-04-12T17:08:27.320Z,0.50
2023-04-12T17:10:55.340Z,0.50
2023-04-12T17:13:23.351Z,0.50
2023-04-12T17:15:51.046Z,0.50
2023-04-12T17:18:18.710Z,0.53
2023-04-12T17:20:47.240Z,0.90
2023-04-12T17:23:16.670Z,1.10
2023-04-12T17:25:47.476Z,0.90
2023-04-12T17:28:15.254Z,1.10
2023-04-12T17:30:45.401Z,1.03
2023-04-12T17:33:13.078Z,0.90
2023-04-12T17:35:41.538Z,0.90
2023-04-12T17:38:09.304Z,1.13
2023-04-12T17:40:38.353Z,0.90
2023-04-12T17:43:07.410Z,0.90
2023-04-12T17:45:35.765Z,1.00
2023-04-12T17:48:03.560Z,0.93
2023-04-12T17:50:32.863Z,0.70
2023-04-12T17:53:01.785Z,0.73
2023-04-12T17:55:29.648Z,0.70
2023-04-12T17:57:58.077Z,1.83
2023-04-12T18:00:29.495Z,1.20
2023-04-12T18:02:59.966Z,0.70
2023-04-12T18:05:27.688Z,0.70
2023-04-12T18:07:56.996Z,0.60
2023-04-12T18:10:26.772Z,0.50
2023-04-12T18:12:54.566Z,0.50
2023-04-12T18:15:22.538Z,0.30
2023-04-12T18:17:51.654Z,3.37
2023-04-12T18:20:19.558Z,1.97
2023-04-12T18:22:47.255Z,1.20
2023-04-12T18:25:15.009Z,0.87
2023-04-12T18:27:43.046Z,0.50
2023-04-12T18:30:11.400Z,0.50
2023-04-12T18:32:39.189Z,0.40
2023-04-12T18:35:09.791Z,0.30
2023-04-12T18:37:38.132Z,0.40
2023-04-12T18:40:08.291Z,0.30
2023-04-12T18:42:36.300Z,0.30
2023-04-12T18:45:04.895Z,0.30
2023-04-12T18:47:32.736Z,0.30
2023-04-12T18:50:00.535Z,0.30
2023-04-12T18:52:29.805Z,0.30
2023-04-12T18:54:59.298Z,0.30
2023-04-12T18:57:27.094Z,0.30
2023-04-12T18:59:54.899Z,0.50
2023-04-12T19:02:22.773Z,0.50
2023-04-12T19:04:50.654Z,0.50
2023-04-12T19:07:18.843Z,0.60
2023-04-12T19:09:52.077Z,0.50
2023-04-12T19:12:20.601Z,0.47
2023-04-12T19:14:48.330Z,0.40
2023-04-12T19:17:22.763Z,0.57
2023-04-12T19:19:52.878Z,0.30
2023-04-12T19:22:20.830Z,0.40
2023-04-12T19:24:50.869Z,0.50
2023-04-12T19:27:18.614Z,0.70
2023-04-12T19:29:46.306Z,0.60
2023-04-12T19:32:14.048Z,0.63
2023-04-12T19:34:42.338Z,0.40
2023-04-12T19:37:10.421Z,0.50
2023-04-12T19:39:40.333Z,0.77
2023-04-12T19:42:09.531Z,0.53
2023-04-12T19:44:39.830Z,0.60
2023-04-12T19:47:08.198Z,0.70
2023-04-12T19:49:36.076Z,0.70
2023-04-12T19:52:05.336Z,0.50
2023-04-12T19:54:33.534Z,0.50
2023-04-12T19:57:01.367Z,0.60
2023-04-12T19:59:34.303Z,0.53
2023-04-12T20:02:03.717Z,0.60
2023-04-12T20:04:31.713Z,0.50
2023-04-12T20:07:00.377Z,0.70
2023-04-12T20:09:28.192Z,0.60
2023-04-12T20:11:56.511Z,0.57
2023-04-12T20:14:26.723Z,0.40
2023-04-12T20:16:56.911Z,0.70
2023-04-12T20:19:24.717Z,0.70
2023-04-12T20:21:53.337Z,0.80
2023-04-12T20:24:27.838Z,0.80
2023-04-12T20:26:57.012Z,0.90
2023-04-12T20:29:24.801Z,0.90
2023-04-12T20:31:53.621Z,0.70
2023-04-12T20:34:25.555Z,0.77
2023-04-12T20:36:54.924Z,0.90
2023-04-12T20:39:30.774Z,0.80
2023-04-12T20:42:01.149Z,0.60
2023-04-12T20:44:28.954Z,0.60
2023-04-12T20:46:56.870Z,0.70
2023-04-12T20:49:27.918Z,0.70
2023-04-12T20:51:56.785Z,0.73
2023-04-12T20:54:25.305Z,0.70
2023-04-12T20:56:53.000Z,0.80
2023-04-12T20:59:22.001Z,0.70
2023-04-12T21:01:49.807Z,0.70
2023-04-12T21:04:20.068Z,0.70
2023-04-12T21:06:55.379Z,0.80
2023-04-12T21:09:24.076Z,0.87
2023-04-12T21:11:52.256Z,0.73
2023-04-12T21:14:20.573Z,0.63
2023-04-12T21:16:49.574Z,0.70
2023-04-12T21:19:18.291Z,0.60
2023-04-12T21:21:46.139Z,0.70
2023-04-12T21:24:15.315Z,0.60
2023-04-12T21:26:43.642Z,0.60
2023-04-12T21:29:11.597Z,0.60
2023-04-12T21:31:41.624Z,0.70
2023-04-12T21:34:10.156Z,0.80
2023-04-12T21:36:38.698Z,0.90
2023-04-12T21:39:06.473Z,0.80
2023-04-12T21:41:37.221Z,0.70
2023-04-12T21:44:04.980Z,1.00
2023-04-12T21:46:32.596Z,0.87
2023-04-12T21:49:00.566Z,0.90
2023-04-12T21:51:28.444Z,0.90
2023-04-12T21:53:56.111Z,1.00
2023-04-12T21:56:23.728Z,1.00
2023-04-12T21:58:52.802Z,0.80
2023-04-12T22:01:20.484Z,0.90
2023-04-12T22:03:48.383Z,0.90
2023-04-12T22:06:16.818Z,0.90
2023-04-12T22:08:45.724Z,1.10
2023-04-12T22:11:13.529Z,0.90
2023-04-12T22:13:41.736Z,1.13
2023-04-12T22:16:13.144Z,0.90
2023-04-12T22:18:41.182Z,0.90
2023-04-12T22:21:11.102Z,1.10
2023-04-12T22:23:40.716Z,0.90
2023-04-12T22:26:09.162Z,0.70
2023-04-12T22:28:37.840Z,1.07
2023-04-12T22:31:05.967Z,0.90
2023-04-12T22:33:36.771Z,0.83
2023-04-12T22:36:06.071Z,0.80
2023-04-12T22:38:35.585Z,0.80
2023-04-12T22:41:06.425Z,0.70
2023-04-12T22:43:42.097Z,1.10
2023-04-12T22:46:16.258Z,1.47
2023-04-12T22:48:47.671Z,0.70
2023-04-12T22:51:16.038Z,1.00
2023-04-12T22:53:43.972Z,0.70
2023-04-12T22:56:11.847Z,0.70
2023-04-12T22:58:40.392Z,0.80
2023-04-12T23:01:11.045Z,1.03
2023-04-12T23:03:41.562Z,0.90
2023-04-12T23:06:12.683Z,0.50
2023-04-12T23:08:40.591Z,1.30
2023-04-12T23:11:08.414Z,0.70
2023-04-12T23:13:36.101Z,1.20
2023-04-12T23:16:04.966Z,0.83
2023-04-12T23:18:35.091Z,0.43
2023-04-12T23:21:02.805Z,1.13
2023-04-12T23:23:31.862Z,1.27
2023-04-12T23:25:59.570Z,0.87
2023-04-12T23:28:28.424Z,0.60
2023-04-12T23:30:57.655Z,0.50
2023-04-12T23:33:25.551Z,0.90
2023-04-12T23:35:53.461Z,0.60
2023-04-12T23:38:31.995Z,1.23
2023-04-12T23:41:02.499Z,0.70
2023-04-12T23:43:31.090Z,0.90
2023-04-12T23:45:58.844Z,0.60
2023-04-12T23:48:27.135Z,0.30
2023-04-12T23:50:54.943Z,0.50
2023-04-12T23:53:22.842Z,0.37
2023-04-12T23:55:53.285Z,0.87
2023-04-12T23:58:22.714Z,0.40
